createdAt,value
2017-06-11T00:00:53.118Z,19.31
2017-06-11T00:01:53.092Z,19.26
2017-06-11T00:02:53.071Z,19.33
2017-06-11T00:03:53.071Z,19.38
2017-06-11T00:04:53.052Z,19.26
2017-06-11T00:05:53.144Z,19.26
2017-06-11T00:06:53.023Z,19.21
2017-06-11T00:07:52.708Z,19.3
2017-06-11T00:08:53.008Z,19.34
2017-06-11T00:09:53.001Z,19.18
2017-06-11T00:10:52.952Z,19.31
2017-06-11T00:11:52.932Z,19.14
2017-06-11T00:12:52.934Z,19.04
2017-06-11T00:13:52.930Z,18.99
2017-06-11T00:14:52.611Z,19.06
2017-06-11T00:15:52.882Z,18.85
2017-06-11T00:16:52.862Z,18.87
2017-06-11T00:17:52.908Z,18.73
2017-06-11T00:18:52.861Z,18.8
2017-06-11T00:19:52.822Z,18.7
2017-06-11T00:20:52.843Z,18.75
2017-06-11T00:21:52.487Z,18.7
2017-06-11T00:22:52.779Z,18.77
2017-06-11T00:23:52.772Z,18.7
2017-06-11T00:24:52.741Z,18.69
2017-06-11T00:25:52.752Z,18.73
2017-06-11T00:26:52.425Z,18.75
2017-06-11T00:27:52.705Z,18.77
2017-06-11T00:28:52.716Z,18.8
2017-06-11T00:29:52.372Z,18.9
2017-06-11T00:30:52.644Z,18.82
2017-06-11T00:31:52.662Z,18.88
2017-06-11T00:32:52.005Z,18.82
2017-06-11T00:33:52.630Z,18.77
2017-06-11T00:34:52.280Z,18.9
2017-06-11T00:35:52.582Z,18.77
2017-06-11T00:36:52.563Z,18.85
2017-06-11T00:37:52.544Z,18.77
2017-06-11T00:38:52.533Z,18.8
2017-06-11T00:39:52.509Z,18.75
2017-06-11T00:40:52.510Z,18.81
2017-06-11T00:41:52.480Z,18.77
2017-06-11T00:42:52.473Z,18.78
2017-06-11T00:43:52.471Z,18.8
2017-06-11T00:44:51.832Z,18.82
2017-06-11T00:45:52.127Z,18.8
2017-06-11T00:46:52.161Z,18.74
2017-06-11T00:47:52.388Z,18.75
2017-06-11T00:48:52.066Z,18.78
2017-06-11T00:49:52.070Z,18.62
2017-06-11T00:50:52.345Z,18.63
2017-06-11T00:51:52.330Z,18.66
2017-06-11T00:52:52.011Z,18.63
2017-06-11T00:53:52.302Z,18.62
2017-06-11T00:54:52.057Z,18.75
2017-06-11T00:55:51.961Z,18.7
2017-06-11T00:56:52.402Z,18.74
2017-06-11T00:57:51.629Z,18.77
2017-06-11T00:58:52.226Z,18.74
2017-06-11T00:59:51.904Z,18.74
2017-06-11T01:00:52.297Z,18.8
2017-06-11T01:01:52.184Z,18.75
2017-06-11T01:02:51.680Z,18.7
2017-06-11T01:03:51.556Z,18.7
2017-06-11T01:04:51.821Z,18.7
2017-06-11T01:05:51.831Z,18.74
2017-06-11T01:06:52.120Z,18.74
2017-06-11T01:07:52.177Z,18.63
2017-06-11T01:08:52.084Z,18.69
2017-06-11T01:09:52.144Z,18.69
2017-06-11T01:10:52.102Z,18.63
2017-06-11T01:11:52.154Z,18.65
2017-06-11T01:12:51.807Z,18.66
2017-06-11T01:13:51.722Z,18.65
2017-06-11T01:14:51.789Z,18.65
2017-06-11T01:15:51.660Z,18.69
2017-06-11T01:16:51.652Z,18.66
2017-06-11T01:17:52.035Z,18.59
2017-06-11T01:18:52.031Z,18.66
2017-06-11T01:19:51.598Z,18.62
2017-06-11T01:20:51.601Z,18.67
2017-06-11T01:21:51.938Z,18.59
2017-06-11T01:22:51.658Z,18.56
2017-06-11T01:23:51.549Z,18.56
2017-06-11T01:24:51.567Z,18.59
2017-06-11T01:25:51.910Z,18.56
2017-06-11T01:26:51.202Z,18.55
2017-06-11T01:27:51.887Z,18.58
2017-06-11T01:28:51.832Z,18.52
2017-06-11T01:29:51.528Z,18.52
2017-06-11T01:30:51.806Z,18.44
2017-06-11T01:31:51.732Z,18.62
2017-06-11T01:32:51.759Z,18.47
2017-06-11T01:33:51.720Z,18.47
2017-06-11T01:34:51.712Z,18.48
2017-06-11T01:35:51.401Z,18.44
2017-06-11T01:36:51.030Z,18.41
2017-06-11T01:37:51.691Z,18.44
2017-06-11T01:38:51.619Z,18.45
2017-06-11T01:39:51.298Z,18.44
2017-06-11T01:40:51.650Z,18.48
2017-06-11T01:41:51.603Z,18.48
2017-06-11T01:42:51.710Z,18.38
2017-06-11T01:43:51.649Z,18.37
2017-06-11T01:44:51.224Z,18.27
2017-06-11T01:45:51.191Z,18.23
2017-06-11T01:46:51.533Z,18.25
2017-06-11T01:47:51.173Z,18.25
2017-06-11T01:48:51.160Z,18.29
2017-06-11T01:49:51.131Z,18.14
2017-06-11T01:50:51.139Z,18.05
2017-06-11T01:51:51.122Z,18.19
2017-06-11T01:52:51.388Z,18.19
2017-06-11T01:53:51.102Z,18.11
2017-06-11T01:54:51.374Z,18.01
2017-06-11T01:55:51.053Z,18.1
2017-06-11T01:56:51.030Z,18.05
2017-06-11T01:57:51.312Z,18.1
2017-06-11T01:58:50.690Z,17.93
2017-06-11T01:59:50.681Z,17.92
2017-06-11T02:00:50.970Z,18.01
2017-06-11T02:01:50.948Z,18
2017-06-11T02:02:50.629Z,18.1
2017-06-11T02:03:50.913Z,17.96
2017-06-11T02:04:51.209Z,17.89
2017-06-11T02:05:50.598Z,17.98
2017-06-11T02:06:50.870Z,17.86
2017-06-11T02:07:50.550Z,17.83
2017-06-11T02:08:50.839Z,17.77
2017-06-11T02:09:50.827Z,17.75
2017-06-11T02:10:51.118Z,17.78
2017-06-11T02:11:51.129Z,17.67
2017-06-11T02:12:51.126Z,17.67
2017-06-11T02:13:51.072Z,17.68
2017-06-11T02:14:50.744Z,17.75
2017-06-11T02:15:51.030Z,17.83
2017-06-11T02:16:50.718Z,17.64
2017-06-11T02:17:50.996Z,17.64
2017-06-11T02:18:50.683Z,17.7
2017-06-11T02:19:50.973Z,17.65
2017-06-11T02:20:50.341Z,17.56
2017-06-11T02:21:50.962Z,17.48
2017-06-11T02:22:50.927Z,17.55
2017-06-11T02:23:50.598Z,17.58
2017-06-11T02:24:50.591Z,17.4
2017-06-11T02:25:50.566Z,17.44
2017-06-11T02:26:50.542Z,17.4
2017-06-11T02:27:50.541Z,17.34
2017-06-11T02:28:50.526Z,17.44
2017-06-11T02:29:50.512Z,17.42
2017-06-11T02:30:50.510Z,17.34
2017-06-11T02:31:50.777Z,17.37
2017-06-11T02:32:50.473Z,17.29
2017-06-11T02:33:50.433Z,17.22
2017-06-11T02:34:50.752Z,17.22
2017-06-11T02:35:50.432Z,17.19
2017-06-11T02:36:50.739Z,17.21
2017-06-11T02:37:50.680Z,17.27
2017-06-11T02:38:50.660Z,17.36
2017-06-11T02:39:50.646Z,17.44
2017-06-11T02:40:50.633Z,17.45
2017-06-11T02:41:50.612Z,17.45
2017-06-11T02:42:50.613Z,17.44
2017-06-11T02:43:50.282Z,17.44
2017-06-11T02:44:50.572Z,17.49
2017-06-11T02:45:50.562Z,17.42
2017-06-11T02:46:50.226Z,17.52
2017-06-11T02:47:50.511Z,17.54
2017-06-11T02:48:49.887Z,17.49
2017-06-11T02:49:50.489Z,17.6
2017-06-11T02:50:50.175Z,17.55
2017-06-11T02:51:50.440Z,17.67
2017-06-11T02:52:50.434Z,17.64
2017-06-11T02:53:50.114Z,17.65
2017-06-11T02:54:50.431Z,17.68
2017-06-11T02:55:50.111Z,17.64
2017-06-11T02:56:50.391Z,17.75
2017-06-11T02:57:49.789Z,17.75
2017-06-11T02:58:50.031Z,17.72
2017-06-11T02:59:50.341Z,17.77
2017-06-11T03:00:50.041Z,17.77
2017-06-11T03:01:49.990Z,17.65
2017-06-11T03:02:49.972Z,17.8
2017-06-11T03:03:50.031Z,17.8
2017-06-11T03:04:49.947Z,17.77
2017-06-11T03:05:49.919Z,17.82
2017-06-11T03:06:50.240Z,17.75
2017-06-11T03:07:49.621Z,17.8
2017-06-11T03:08:50.215Z,17.8
2017-06-11T03:09:49.859Z,17.86
2017-06-11T03:10:50.170Z,17.77
2017-06-11T03:11:50.145Z,17.85
2017-06-11T03:12:50.189Z,17.78
2017-06-11T03:13:49.814Z,17.86
2017-06-11T03:14:49.890Z,17.78
2017-06-11T03:15:49.761Z,17.82
2017-06-11T03:16:49.856Z,17.72
2017-06-11T03:17:50.031Z,17.74
2017-06-11T03:18:49.720Z,17.64
2017-06-11T03:19:49.699Z,17.67
2017-06-11T03:20:50.098Z,17.7
2017-06-11T03:21:49.986Z,17.7
2017-06-11T03:22:49.646Z,17.67
2017-06-11T03:23:49.932Z,17.72
2017-06-11T03:24:49.620Z,17.65
2017-06-11T03:25:49.610Z,17.67
2017-06-11T03:26:49.630Z,17.64
2017-06-11T03:27:49.592Z,17.8
2017-06-11T03:28:49.550Z,17.75
2017-06-11T03:29:49.586Z,17.8
2017-06-11T03:30:49.956Z,17.85
2017-06-11T03:31:49.508Z,17.71
2017-06-11T03:32:49.581Z,17.67
2017-06-11T03:33:49.480Z,17.74
2017-06-11T03:34:49.857Z,17.65
2017-06-11T03:35:49.441Z,17.75
2017-06-11T03:36:49.430Z,17.67
2017-06-11T03:37:49.421Z,17.77
2017-06-11T03:38:49.408Z,17.82
2017-06-11T03:39:49.690Z,17.8
2017-06-11T03:40:49.760Z,17.85
2017-06-11T03:41:49.341Z,17.78
2017-06-11T03:42:49.668Z,17.89
2017-06-11T03:43:49.013Z,17.75
2017-06-11T03:44:49.340Z,17.74
2017-06-11T03:45:49.640Z,17.77
2017-06-11T03:46:49.321Z,17.67
2017-06-11T03:47:49.551Z,17.62
2017-06-11T03:48:49.253Z,17.65
2017-06-11T03:49:49.630Z,17.6
2017-06-11T03:50:49.221Z,17.64
2017-06-11T03:51:49.187Z,17.72
2017-06-11T03:52:49.591Z,17.75
2017-06-11T03:53:49.163Z,17.65
2017-06-11T03:54:49.497Z,17.68
2017-06-11T03:55:49.528Z,17.64
2017-06-11T03:56:49.150Z,17.68
2017-06-11T03:57:49.596Z,17.71
2017-06-11T03:58:49.093Z,17.62
2017-06-11T03:59:49.068Z,17.51
2017-06-11T04:00:49.046Z,17.64
2017-06-11T04:01:49.030Z,17.7
2017-06-11T04:02:49.010Z,17.68
2017-06-11T04:03:49.439Z,17.72
2017-06-11T04:04:48.679Z,17.72
2017-06-11T04:05:48.963Z,17.77
2017-06-11T04:06:49.254Z,17.82
2017-06-11T04:07:49.287Z,17.8
2017-06-11T04:08:49.234Z,17.82
2017-06-11T04:09:49.293Z,17.78
2017-06-11T04:10:48.583Z,17.86
2017-06-11T04:11:48.564Z,17.8
2017-06-11T04:12:48.850Z,17.85
2017-06-11T04:13:48.840Z,17.83
2017-06-11T04:14:48.527Z,17.92
2017-06-11T04:15:48.821Z,17.89
2017-06-11T04:16:49.095Z,17.98
2017-06-11T04:17:48.783Z,17.95
2017-06-11T04:18:49.073Z,18.05
2017-06-11T04:19:48.740Z,18.02
2017-06-11T04:20:48.732Z,18.11
2017-06-11T04:21:49.081Z,18.11
2017-06-11T04:22:49.002Z,18.11
2017-06-11T04:23:49.013Z,18.1
2017-06-11T04:24:48.693Z,18.14
2017-06-11T04:25:48.685Z,17.98
2017-06-11T04:26:48.653Z,18.05
2017-06-11T04:27:48.622Z,18.18
2017-06-11T04:28:48.603Z,18.25
2017-06-11T04:29:48.885Z,18.18
2017-06-11T04:30:48.572Z,18.18
2017-06-11T04:31:48.559Z,18.25
2017-06-11T04:32:48.859Z,18.32
2017-06-11T04:33:48.529Z,18.4
2017-06-11T04:34:48.861Z,18.42
2017-06-11T04:35:48.487Z,18.42
2017-06-11T04:36:48.770Z,18.38
2017-06-11T04:37:48.466Z,18.42
2017-06-11T04:38:48.752Z,18.4
2017-06-11T04:39:48.731Z,18.4
2017-06-11T04:40:48.421Z,18.4
2017-06-11T04:41:48.712Z,18.45
2017-06-11T04:42:48.692Z,18.51
2017-06-11T04:43:48.378Z,18.52
2017-06-11T04:44:48.056Z,18.52
2017-06-11T04:45:48.339Z,18.63
2017-06-11T04:46:48.629Z,18.69
2017-06-11T04:47:48.620Z,18.74
2017-06-11T04:48:48.300Z,18.69
2017-06-11T04:49:47.975Z,18.78
2017-06-11T04:50:48.266Z,18.82
2017-06-11T04:51:48.244Z,18.78
2017-06-11T04:52:48.249Z,18.78
2017-06-11T04:53:48.219Z,18.84
2017-06-11T04:54:48.203Z,18.84
2017-06-11T04:55:48.187Z,18.78
2017-06-11T04:56:48.490Z,18.87
2017-06-11T04:57:48.172Z,18.88
2017-06-11T04:58:48.444Z,18.87
2017-06-11T04:59:48.185Z,18.97
2017-06-11T05:00:47.890Z,18.96
2017-06-11T05:01:48.142Z,18.93
2017-06-11T05:02:48.082Z,18.95
2017-06-11T05:03:48.066Z,18.95
2017-06-11T05:04:48.067Z,19
2017-06-11T05:05:48.341Z,19.07
2017-06-11T05:06:48.331Z,19.12
2017-06-11T05:07:48.010Z,19.08
2017-06-11T05:08:48.303Z,19.19
2017-06-11T05:09:48.311Z,19.15
2017-06-11T05:10:48.271Z,18.96
2017-06-11T05:11:47.951Z,19.02
2017-06-11T05:12:47.961Z,19.07
2017-06-11T05:13:48.226Z,19.22
2017-06-11T05:14:48.213Z,19.22
2017-06-11T05:15:48.202Z,19.46
2017-06-11T05:16:48.181Z,19.4
2017-06-11T05:17:48.171Z,19.53
2017-06-11T05:18:47.840Z,19.46
2017-06-11T05:19:47.850Z,19.41
2017-06-11T05:20:48.245Z,19.52
2017-06-11T05:21:48.133Z,19.48
2017-06-11T05:22:48.111Z,19.48
2017-06-11T05:23:47.879Z,19.41
2017-06-11T05:24:48.072Z,19.53
2017-06-11T05:25:48.182Z,19.56
2017-06-11T05:26:47.741Z,19.56
2017-06-11T05:27:47.721Z,19.67
2017-06-11T05:28:47.696Z,19.78
2017-06-11T05:29:48.031Z,19.86
2017-06-11T05:30:48.042Z,19.95
2017-06-11T05:31:48.079Z,19.98
2017-06-11T05:32:47.972Z,19.98
2017-06-11T05:33:47.711Z,19.96
2017-06-11T05:34:47.623Z,20.08
2017-06-11T05:35:47.922Z,20.14
2017-06-11T05:36:47.893Z,20.13
2017-06-11T05:37:47.599Z,20.04
2017-06-11T05:38:47.960Z,20.08
2017-06-11T05:39:47.558Z,20.14
2017-06-11T05:40:47.533Z,20.18
2017-06-11T05:41:47.521Z,20.23
2017-06-11T05:42:47.196Z,20.29
2017-06-11T05:43:47.863Z,20.41
2017-06-11T05:44:47.470Z,20.36
2017-06-11T05:45:47.264Z,20.49
2017-06-11T05:46:47.862Z,20.38
2017-06-11T05:47:47.438Z,20.43
2017-06-11T05:48:47.414Z,20.4
2017-06-11T05:49:47.715Z,20.4
2017-06-11T05:50:47.698Z,20.48
2017-06-11T05:51:47.079Z,20.52
2017-06-11T05:52:47.369Z,20.4
2017-06-11T05:53:47.344Z,20.41
2017-06-11T05:54:47.661Z,20.38
2017-06-11T05:55:47.628Z,20.47
2017-06-11T05:56:47.698Z,20.35
2017-06-11T05:57:47.723Z,20.38
2017-06-11T05:58:47.592Z,20.36
2017-06-11T05:59:47.322Z,20.38
2017-06-11T06:00:47.564Z,20.36
2017-06-11T06:01:47.299Z,20.43
2017-06-11T06:02:47.616Z,20.43
2017-06-11T06:03:47.523Z,20.49
2017-06-11T06:04:46.893Z,20.49
2017-06-11T06:05:47.493Z,20.6
2017-06-11T06:06:46.871Z,20.69
2017-06-11T06:07:46.856Z,20.67
2017-06-11T06:08:47.493Z,20.7
2017-06-11T06:09:47.481Z,20.72
2017-06-11T06:10:47.113Z,20.73
2017-06-11T06:11:47.410Z,20.78
2017-06-11T06:12:47.091Z,20.67
2017-06-11T06:13:46.777Z,20.76
2017-06-11T06:14:47.060Z,20.76
2017-06-11T06:15:47.058Z,20.73
2017-06-11T06:16:47.367Z,20.67
2017-06-11T06:17:47.342Z,20.72
2017-06-11T06:18:47.311Z,20.69
2017-06-11T06:19:47.001Z,20.54
2017-06-11T06:20:46.976Z,20.49
2017-06-11T06:21:47.270Z,20.41
2017-06-11T06:22:46.954Z,20.41
2017-06-11T06:23:47.253Z,20.38
2017-06-11T06:24:47.282Z,20.47
2017-06-11T06:25:46.912Z,20.49
2017-06-11T06:26:46.914Z,20.48
2017-06-11T06:27:47.197Z,20.35
2017-06-11T06:28:46.878Z,20.33
2017-06-11T06:29:46.867Z,20.31
2017-06-11T06:30:47.153Z,20.41
2017-06-11T06:31:47.134Z,20.38
2017-06-11T06:32:46.511Z,20.33
2017-06-11T06:33:46.801Z,20.41
2017-06-11T06:34:46.805Z,20.49
2017-06-11T06:35:47.082Z,20.57
2017-06-11T06:36:46.771Z,20.62
2017-06-11T06:37:46.741Z,20.62
2017-06-11T06:38:47.045Z,20.67
2017-06-11T06:39:46.416Z,20.73
2017-06-11T06:40:46.704Z,20.76
2017-06-11T06:41:46.712Z,20.67
2017-06-11T06:42:46.998Z,20.69
2017-06-11T06:43:46.661Z,20.73
2017-06-11T06:44:47.012Z,20.74
2017-06-11T06:45:46.952Z,20.69
2017-06-11T06:46:46.935Z,20.76
2017-06-11T06:47:46.608Z,20.62
2017-06-11T06:48:46.601Z,20.67
2017-06-11T06:49:46.578Z,20.72
2017-06-11T06:50:46.872Z,20.69
2017-06-11T06:51:46.862Z,20.78
2017-06-11T06:52:46.550Z,20.67
2017-06-11T06:53:46.840Z,20.76
2017-06-11T06:54:46.513Z,20.84
2017-06-11T06:55:46.491Z,20.95
2017-06-11T06:56:46.812Z,21
2017-06-11T06:57:46.471Z,20.94
2017-06-11T06:58:46.758Z,20.92
2017-06-11T06:59:46.492Z,20.92
2017-06-11T07:00:46.133Z,20.95
2017-06-11T07:01:46.798Z,20.97
2017-06-11T07:02:46.422Z,21.07
2017-06-11T07:03:46.832Z,21.07
2017-06-11T07:04:46.374Z,21.09
2017-06-11T07:05:46.497Z,21.17
2017-06-11T07:06:46.656Z,21.11
2017-06-11T07:07:46.673Z,21.21
2017-06-11T07:08:46.338Z,21.26
2017-06-11T07:09:46.323Z,21.37
2017-06-11T07:10:46.622Z,21.28
2017-06-11T07:11:46.348Z,21.33
2017-06-11T07:12:46.272Z,21.43
2017-06-11T07:13:46.633Z,21.49
2017-06-11T07:14:46.252Z,21.65
2017-06-11T07:15:46.337Z,21.81
2017-06-11T07:16:46.533Z,21.83
2017-06-11T07:17:46.531Z,21.88
2017-06-11T07:18:46.193Z,21.92
2017-06-11T07:19:46.592Z,22.11
2017-06-11T07:20:46.170Z,22.06
2017-06-11T07:21:46.164Z,22.11
2017-06-11T07:22:46.471Z,22.11
2017-06-11T07:23:46.139Z,22.32
2017-06-11T07:24:45.896Z,22.37
2017-06-11T07:25:46.425Z,22.51
2017-06-11T07:26:46.404Z,22.66
2017-06-11T07:27:46.084Z,22.55
2017-06-11T07:28:46.072Z,22.54
2017-06-11T07:29:46.052Z,22.61
2017-06-11T07:30:46.053Z,22.65
2017-06-11T07:31:45.724Z,22.59
2017-06-11T07:32:46.047Z,22.47
2017-06-11T07:33:46.320Z,22.52
2017-06-11T07:34:46.353Z,22.54
2017-06-11T07:35:46.292Z,22.59
2017-06-11T07:36:45.972Z,22.72
2017-06-11T07:37:46.263Z,22.76
2017-06-11T07:38:45.955Z,22.8
2017-06-11T07:39:45.943Z,22.84
2017-06-11T07:40:46.251Z,22.85
2017-06-11T07:41:45.609Z,22.94
2017-06-11T07:42:45.908Z,22.95
2017-06-11T07:43:45.584Z,23.03
2017-06-11T07:44:46.180Z,23.04
2017-06-11T07:45:45.561Z,23.1
2017-06-11T07:46:45.910Z,23.12
2017-06-11T07:47:46.152Z,23.09
2017-06-11T07:48:46.141Z,23.12
2017-06-11T07:49:45.856Z,23.21
2017-06-11T07:50:45.801Z,23.19
2017-06-11T07:51:45.904Z,23.24
2017-06-11T07:52:45.784Z,23.29
2017-06-11T07:53:45.794Z,23.32
2017-06-11T07:54:45.770Z,23.38
2017-06-11T07:55:45.814Z,23.29
2017-06-11T07:56:46.043Z,23.29
2017-06-11T07:57:46.032Z,23.28
2017-06-11T07:58:45.711Z,23.4
2017-06-11T07:59:45.734Z,23.41
2017-06-11T08:00:46.000Z,23.45
2017-06-11T08:01:46.079Z,23.47
2017-06-11T08:02:45.974Z,23.48
2017-06-11T08:03:45.793Z,23.51
2017-06-11T08:04:45.966Z,23.65
2017-06-11T08:05:45.749Z,23.78
2017-06-11T08:06:45.935Z,23.72
2017-06-11T08:07:45.931Z,23.63
2017-06-11T08:08:46.011Z,23.51
2017-06-11T08:09:45.916Z,23.27
2017-06-11T08:10:45.661Z,23.35
2017-06-11T08:11:46.010Z,23.41
2017-06-11T08:12:45.945Z,23.52
2017-06-11T08:13:45.551Z,23.67
2017-06-11T08:14:45.949Z,23.84
2017-06-11T08:15:45.586Z,23.97
2017-06-11T08:16:45.965Z,23.95
2017-06-11T08:17:45.870Z,24.09
2017-06-11T08:18:45.490Z,24.18
2017-06-11T08:19:45.487Z,24.24
2017-06-11T08:20:45.874Z,24.36
2017-06-11T08:21:45.813Z,24.33
2017-06-11T08:22:45.739Z,24.34
2017-06-11T08:23:45.789Z,24.39
2017-06-11T08:24:45.861Z,24.4
2017-06-11T08:25:45.108Z,24.51
2017-06-11T08:26:45.781Z,24.37
2017-06-11T08:27:45.813Z,24.21
2017-06-11T08:28:45.702Z,24.33
2017-06-11T08:29:45.688Z,24.42
2017-06-11T08:30:45.682Z,24.44
2017-06-11T08:31:45.671Z,24.42
2017-06-11T08:32:45.351Z,24.44
2017-06-11T08:33:45.622Z,24.61
2017-06-11T08:34:45.656Z,24.59
2017-06-11T08:35:44.993Z,24.78
2017-06-11T08:36:45.621Z,24.82
2017-06-11T08:37:45.291Z,24.96
2017-06-11T08:38:45.630Z,25.18
2017-06-11T08:39:45.261Z,25.22
2017-06-11T08:40:45.573Z,25.32
2017-06-11T08:41:44.925Z,25.17
2017-06-11T08:42:45.241Z,25.22
2017-06-11T08:43:45.535Z,25.27
2017-06-11T08:44:45.528Z,25.37
2017-06-11T08:45:45.212Z,25.4
2017-06-11T08:46:45.312Z,25.36
2017-06-11T08:47:45.174Z,25.37
2017-06-11T08:48:44.857Z,25.52
2017-06-11T08:49:45.149Z,25.51
2017-06-11T08:50:45.241Z,25.48
2017-06-11T08:51:44.830Z,25.54
2017-06-11T08:52:45.433Z,25.54
2017-06-11T08:53:45.419Z,25.62
2017-06-11T08:54:45.111Z,25.44
2017-06-11T08:55:45.090Z,25.18
2017-06-11T08:56:45.379Z,25.18
2017-06-11T08:57:45.081Z,25.11
2017-06-11T08:58:45.369Z,25.17
2017-06-11T08:59:45.373Z,25.29
2017-06-11T09:00:45.052Z,25.42
2017-06-11T09:01:45.041Z,25.4
2017-06-11T09:02:45.030Z,25.54
2017-06-11T09:03:45.330Z,25.66
2017-06-11T09:04:45.314Z,25.64
2017-06-11T09:05:45.299Z,25.62
2017-06-11T09:06:45.288Z,25.77
2017-06-11T09:07:44.993Z,25.84
2017-06-11T09:08:44.960Z,25.91
2017-06-11T09:09:45.309Z,26.03
2017-06-11T09:10:44.946Z,25.99
2017-06-11T09:11:45.253Z,26.1
2017-06-11T09:12:45.242Z,26.26
2017-06-11T09:13:45.258Z,26.19
2017-06-11T09:14:45.225Z,26.3
2017-06-11T09:15:45.250Z,26.26
2017-06-11T09:16:44.900Z,26.27
2017-06-11T09:17:45.210Z,26.26
2017-06-11T09:18:44.880Z,26.34
2017-06-11T09:19:45.183Z,26.27
2017-06-11T09:20:44.842Z,26.27
2017-06-11T09:21:44.848Z,26.33
2017-06-11T09:22:45.139Z,26.32
2017-06-11T09:23:44.830Z,26.39
2017-06-11T09:24:44.818Z,26.44
2017-06-11T09:25:45.117Z,26.44
2017-06-11T09:26:45.112Z,26.51
2017-06-11T09:27:45.101Z,26.57
2017-06-11T09:28:45.097Z,26.57
2017-06-11T09:29:45.067Z,26.51
2017-06-11T09:30:45.071Z,26.56
2017-06-11T09:31:44.760Z,26.57
2017-06-11T09:32:45.049Z,26.44
2017-06-11T09:33:45.069Z,26.44
2017-06-11T09:34:44.719Z,26.39
2017-06-11T09:35:44.715Z,26.51
2017-06-11T09:36:44.709Z,26.64
2017-06-11T09:37:45.000Z,26.69
2017-06-11T09:38:44.989Z,26.71
2017-06-11T09:39:44.682Z,26.67
2017-06-11T09:40:44.676Z,26.7
2017-06-11T09:41:44.975Z,26.71
2017-06-11T09:42:44.661Z,26.76
2017-06-11T09:43:44.642Z,26.84
2017-06-11T09:44:44.940Z,26.89
2017-06-11T09:45:44.920Z,26.79
2017-06-11T09:46:44.618Z,26.88
2017-06-11T09:47:44.615Z,26.81
2017-06-11T09:48:44.921Z,26.81
2017-06-11T09:49:44.592Z,26.82
2017-06-11T09:50:44.910Z,26.78
2017-06-11T09:51:44.576Z,26.82
2017-06-11T09:52:44.647Z,26.82
2017-06-11T09:53:44.856Z,26.81
2017-06-11T09:54:44.950Z,26.97
2017-06-11T09:55:44.841Z,27
2017-06-11T09:56:44.530Z,27
2017-06-11T09:57:44.201Z,27.04
2017-06-11T09:58:44.828Z,27.06
2017-06-11T09:59:44.807Z,26.89
2017-06-11T10:00:44.890Z,26.97
2017-06-11T10:01:44.804Z,27.09
2017-06-11T10:02:44.802Z,27.21
2017-06-11T10:03:44.774Z,27.13
2017-06-11T10:04:44.461Z,27.21
2017-06-11T10:05:44.448Z,27.04
2017-06-11T10:06:44.755Z,26.98
2017-06-11T10:07:44.116Z,26.93
2017-06-11T10:08:44.139Z,27.01
2017-06-11T10:09:44.444Z,27.09
2017-06-11T10:10:44.416Z,27.06
2017-06-11T10:11:44.698Z,27.18
2017-06-11T10:12:44.698Z,27.23
2017-06-11T10:13:44.697Z,27.31
2017-06-11T10:14:44.689Z,27.41
2017-06-11T10:15:44.675Z,27.48
2017-06-11T10:16:44.652Z,27.59
2017-06-11T10:17:44.661Z,27.61
2017-06-11T10:18:44.647Z,27.57
2017-06-11T10:19:44.336Z,27.57
2017-06-11T10:20:44.617Z,27.63
2017-06-11T10:21:44.314Z,27.52
2017-06-11T10:22:44.619Z,27.49
2017-06-11T10:23:43.998Z,27.34
2017-06-11T10:24:44.407Z,27.37
2017-06-11T10:25:44.281Z,27.31
2017-06-11T10:26:44.579Z,27.38
2017-06-11T10:27:45.811Z,27.34
2017-06-11T10:28:44.569Z,27.46
2017-06-11T10:29:44.358Z,27.6
2017-06-11T10:30:44.547Z,27.61
2017-06-11T10:31:44.223Z,27.69
2017-06-11T10:32:44.538Z,27.74
2017-06-11T10:33:44.595Z,27.55
2017-06-11T10:34:44.511Z,27.52
2017-06-11T10:35:44.628Z,27.57
2017-06-11T10:36:44.220Z,27.5
2017-06-11T10:37:44.278Z,27.63
2017-06-11T10:38:44.170Z,27.6
2017-06-11T10:39:44.170Z,27.57
2017-06-11T10:40:44.154Z,27.74
2017-06-11T10:41:44.525Z,27.75
2017-06-11T10:42:44.148Z,27.75
2017-06-11T10:43:44.496Z,27.91
2017-06-11T10:44:44.488Z,28.01
2017-06-11T10:45:44.185Z,28
2017-06-11T10:46:43.801Z,28.03
2017-06-11T10:47:44.412Z,28.05
2017-06-11T10:48:43.796Z,27.98
2017-06-11T10:49:44.142Z,28.06
2017-06-11T10:50:44.139Z,28.06
2017-06-11T10:51:43.758Z,28.12
2017-06-11T10:52:44.379Z,28.19
2017-06-11T10:53:44.372Z,28.24
2017-06-11T10:54:44.367Z,28.25
2017-06-11T10:55:44.033Z,28.42
2017-06-11T10:56:44.358Z,28.34
2017-06-11T10:57:44.026Z,28.37
2017-06-11T10:58:44.036Z,28.34
2017-06-11T10:59:44.107Z,28.43
2017-06-11T11:00:44.004Z,28.5
2017-06-11T11:01:43.999Z,28.33
2017-06-11T11:02:44.295Z,28.35
2017-06-11T11:03:44.294Z,28.34
2017-06-11T11:04:44.308Z,28.34
2017-06-11T11:05:43.662Z,28.47
2017-06-11T11:06:44.260Z,28.38
2017-06-11T11:07:44.266Z,28.3
2017-06-11T11:08:44.263Z,28.27
2017-06-11T11:09:44.038Z,28.27
2017-06-11T11:10:43.938Z,28.21
2017-06-11T11:11:43.968Z,28.23
2017-06-11T11:12:43.606Z,28.27
2017-06-11T11:13:44.224Z,28.35
2017-06-11T11:14:43.908Z,28.49
2017-06-11T11:15:44.213Z,28.58
2017-06-11T11:16:44.219Z,28.76
2017-06-11T11:17:44.178Z,28.74
2017-06-11T11:18:43.566Z,28.68
2017-06-11T11:19:44.169Z,28.53
2017-06-11T11:20:43.659Z,28.53
2017-06-11T11:21:44.145Z,28.55
2017-06-11T11:22:43.603Z,28.47
2017-06-11T11:23:43.829Z,28.5
2017-06-11T11:24:44.158Z,28.61
2017-06-11T11:25:43.497Z,28.52
2017-06-11T11:26:43.851Z,28.58
2017-06-11T11:27:44.217Z,28.55
2017-06-11T11:28:43.776Z,28.4
2017-06-11T11:29:43.816Z,28.3
2017-06-11T11:30:43.771Z,28.3
2017-06-11T11:31:44.090Z,28.13
2017-06-11T11:32:44.118Z,28.21
2017-06-11T11:33:43.746Z,28.19
2017-06-11T11:34:44.133Z,28.3
2017-06-11T11:35:44.047Z,28.33
2017-06-11T11:36:43.411Z,28.33
2017-06-11T11:37:44.047Z,28.49
2017-06-11T11:38:44.037Z,28.42
2017-06-11T11:39:44.008Z,28.4
2017-06-11T11:40:43.687Z,28.5
2017-06-11T11:41:44.001Z,28.67
2017-06-11T11:42:43.748Z,28.72
2017-06-11T11:43:43.354Z,28.8
2017-06-11T11:44:43.958Z,28.83
2017-06-11T11:45:43.969Z,28.84
2017-06-11T11:46:43.964Z,28.77
2017-06-11T11:47:43.636Z,28.79
2017-06-11T11:48:43.627Z,28.67
2017-06-11T11:49:43.657Z,28.83
2017-06-11T11:50:43.620Z,28.86
2017-06-11T11:51:43.618Z,28.87
2017-06-11T11:52:43.894Z,28.83
2017-06-11T11:53:43.894Z,28.84
2017-06-11T11:54:43.641Z,28.79
2017-06-11T11:55:43.329Z,28.87
2017-06-11T11:56:43.630Z,28.82
2017-06-11T11:57:43.887Z,28.87
2017-06-11T11:58:43.261Z,28.68
2017-06-11T11:59:43.877Z,28.42
2017-06-11T12:00:43.593Z,28.55
2017-06-11T12:01:43.537Z,28.65
2017-06-11T12:02:43.533Z,28.79
2017-06-11T12:03:43.830Z,28.83
2017-06-11T12:04:43.497Z,28.83
2017-06-11T12:05:43.514Z,28.65
2017-06-11T12:06:43.508Z,28.72
2017-06-11T12:07:43.802Z,28.65
2017-06-11T12:08:43.478Z,28.68
2017-06-11T12:09:43.797Z,28.64
2017-06-11T12:10:43.770Z,28.71
2017-06-11T12:11:43.887Z,28.67
2017-06-11T12:12:43.448Z,28.49
2017-06-11T12:13:43.801Z,28.55
2017-06-11T12:14:43.448Z,28.6
2017-06-11T12:15:43.744Z,28.65
2017-06-11T12:16:43.723Z,28.68
2017-06-11T12:17:43.802Z,28.72
2017-06-11T12:18:43.711Z,28.6
2017-06-11T12:19:43.389Z,28.65
2017-06-11T12:20:43.686Z,28.67
2017-06-11T12:21:43.401Z,28.61
2017-06-11T12:22:43.381Z,28.68
2017-06-11T12:23:43.363Z,28.67
2017-06-11T12:24:43.681Z,28.62
2017-06-11T12:25:43.364Z,28.71
2017-06-11T12:26:43.346Z,28.74
2017-06-11T12:27:43.653Z,28.82
2017-06-11T12:28:43.628Z,28.83
2017-06-11T12:29:43.342Z,28.8
2017-06-11T12:30:43.721Z,28.82
2017-06-11T12:31:43.627Z,28.72
2017-06-11T12:32:43.598Z,28.77
2017-06-11T12:33:43.590Z,28.83
2017-06-11T12:34:43.586Z,28.87
2017-06-11T12:35:43.289Z,28.93
2017-06-11T12:36:43.567Z,29.02
2017-06-11T12:37:43.256Z,29.02
2017-06-11T12:38:43.619Z,28.95
2017-06-11T12:39:43.578Z,28.98
2017-06-11T12:40:43.542Z,28.98
2017-06-11T12:41:43.536Z,29.18
2017-06-11T12:42:43.564Z,29.33
2017-06-11T12:43:43.519Z,29.27
2017-06-11T12:44:43.518Z,29.21
2017-06-11T12:45:43.516Z,29.15
2017-06-11T12:46:43.508Z,29.06
2017-06-11T12:47:43.221Z,28.92
2017-06-11T12:48:43.190Z,28.84
2017-06-11T12:49:43.487Z,28.95
2017-06-11T12:50:43.485Z,28.77
2017-06-11T12:51:43.159Z,28.67
2017-06-11T12:52:43.514Z,28.64
2017-06-11T12:53:43.457Z,28.71
2017-06-11T12:54:43.453Z,28.65
2017-06-11T12:55:43.436Z,28.67